sensor_id;sensor_type;location;lat;lon;timestamp;pressure;altitude;pressure_sealevel;temperature;humidity
41531;BME280;58990;46.284;13.126;2022-09-27T00:02:21;97980.63;;;12.24;93.70
41531;BME280;58990;46.284;13.126;2022-09-27T00:04:46;97975.50;;;12.29;93.47
41531;BME280;58990;46.284;13.126;2022-09-27T00:07:11;97973.00;;;12.34;93.33
41531;BME280;58990;46.284;13.126;2022-09-27T00:09:37;97979.97;;;12.28;93.87
41531;BME280;58990;46.284;13.126;2022-09-27T00:12:03;97978.00;;;12.24;94.44
41531;BME280;58990;46.284;13.126;2022-09-27T00:14:31;97975.59;;;12.22;94.41
41531;BME280;58990;46.284;13.126;2022-09-27T00:16:57;97983.13;;;12.19;94.05
41531;BME280;58990;46.284;13.126;2022-09-27T00:19:22;97985.88;;;12.24;92.42
41531;BME280;58990;46.284;13.126;2022-09-27T00:21:50;97999.03;;;12.24;92.77
41531;BME280;58990;46.284;13.126;2022-09-27T00:24:18;97993.34;;;12.27;92.92
41531;BME280;58990;46.284;13.126;2022-09-27T00:26:44;97998.72;;;12.32;91.53
41531;BME280;58990;46.284;13.126;2022-09-27T00:29:11;97996.47;;;12.36;91.81
41531;BME280;58990;46.284;13.126;2022-09-27T00:31:38;98002.66;;;12.41;91.16
41531;BME280;58990;46.284;13.126;2022-09-27T00:34:04;98006.91;;;12.42;91.51
41531;BME280;58990;46.284;13.126;2022-09-27T00:36:31;98008.22;;;12.33;93.66
41531;BME280;58990;46.284;13.126;2022-09-27T00:38:57;98008.09;;;12.28;94.57
41531;BME280;58990;46.284;13.126;2022-09-27T00:41:29;98009.00;;;12.22;95.26
41531;BME280;58990;46.284;13.126;2022-09-27T00:43:57;98012.72;;;12.14;96.03
41531;BME280;58990;46.284;13.126;2022-09-27T00:46:40;98022.06;;;12.10;96.29
41531;BME280;58990;46.284;13.126;2022-09-27T00:52:00;98021.50;;;12.08;97.65
41531;BME280;58990;46.284;13.126;2022-09-27T00:54:27;98016.66;;;12.05;98.22
41531;BME280;58990;46.284;13.126;2022-09-27T00:56:54;98003.19;;;12.01;98.95
41531;BME280;58990;46.284;13.126;2022-09-27T00:59:26;98002.34;;;12.01;99.29
41531;BME280;58990;46.284;13.126;2022-09-27T01:01:53;97998.50;;;12.03;98.33
41531;BME280;58990;46.284;13.126;2022-09-27T01:04:21;97988.56;;;12.05;98.40
41531;BME280;58990;46.284;13.126;2022-09-27T01:06:49;97982.84;;;12.08;98.08
41531;BME280;58990;46.284;13.126;2022-09-27T01:09:15;97980.78;;;12.10;98.80
41531;BME280;58990;46.284;13.126;2022-09-27T01:11:53;97979.69;;;12.18;98.77
41531;BME280;58990;46.284;13.126;2022-09-27T01:37:08;97961.66;;;11.85;100.00
41531;BME280;58990;46.284;13.126;2022-09-27T01:45:29;97968.38;;;11.81;100.00
41531;BME280;58990;46.284;13.126;2022-09-27T01:48:02;97956.84;;;11.82;100.00
41531;BME280;58990;46.284;13.126;2022-09-27T01:50:45;97956.84;;;11.82;100.00
41531;BME280;58990;46.284;13.126;2022-09-27T01:55:53;97926.03;;;11.89;100.00
41531;BME280;58990;46.284;13.126;2022-09-27T02:01:01;97911.41;;;11.93;100.00
41531;BME280;58990;46.284;13.126;2022-09-27T02:03:30;97907.06;;;11.87;100.00
41531;BME280;58990;46.284;13.126;2022-09-27T02:06:01;97899.31;;;11.92;100.00
41531;BME280;58990;46.284;13.126;2022-09-27T02:11:12;97877.53;;;11.85;100.00
41531;BME280;58990;46.284;13.126;2022-09-27T02:25:17;97834.06;;;12.01;100.00
41531;BME280;58990;46.284;13.126;2022-09-27T02:30:54;97826.00;;;11.84;100.00
41531;BME280;58990;46.284;13.126;2022-09-27T02:33:24;97807.72;;;11.77;100.00
41531;BME280;58990;46.284;13.126;2022-09-27T02:35:50;97808.34;;;11.72;100.00
41531;BME280;58990;46.284;13.126;2022-09-27T02:38:15;97794.88;;;11.69;100.00
41531;BME280;58990;46.284;13.126;2022-09-27T02:40:43;97794.06;;;11.68;100.00
41531;BME280;58990;46.284;13.126;2022-09-27T02:43:09;97782.31;;;11.71;100.00
41531;BME280;58990;46.284;13.126;2022-09-27T02:46:04;97776.25;;;11.70;100.00
41531;BME280;58990;46.284;13.126;2022-09-27T03:00:19;97771.97;;;11.88;99.57
41531;BME280;58990;46.284;13.126;2022-09-27T03:02:54;97768.75;;;11.86;98.81
41531;BME280;58990;46.284;13.126;2022-09-27T03:05:25;97755.03;;;11.84;98.08
41531;BME280;58990;46.284;13.126;2022-09-27T03:07:52;97760.84;;;11.86;97.75
41531;BME280;58990;46.284;13.126;2022-09-27T03:10:20;97749.31;;;11.87;97.42
41531;BME280;58990;46.284;13.126;2022-09-27T03:12:46;97749.78;;;11.84;97.22
41531;BME280;58990;46.284;13.126;2022-09-27T03:15:12;97740.75;;;11.91;96.87
41531;BME280;58990;46.284;13.126;2022-09-27T03:17:38;97744.19;;;11.92;96.45
41531;BME280;58990;46.284;13.126;2022-09-27T03:20:04;97740.41;;;11.88;97.03
41531;BME280;58990;46.284;13.126;2022-09-27T03:22:30;97736.19;;;11.87;96.63
41531;BME280;58990;46.284;13.126;2022-09-27T03:24:55;97747.25;;;11.89;96.29
41531;BME280;58990;46.284;13.126;2022-09-27T03:27:21;97744.34;;;11.97;96.45
41531;BME280;58990;46.284;13.126;2022-09-27T03:29:47;97747.25;;;11.89;97.20
41531;BME280;58990;46.284;13.126;2022-09-27T03:32:12;97742.81;;;11.89;97.05
41531;BME280;58990;46.284;13.126;2022-09-27T03:34:38;97740.19;;;11.89;96.20
41531;BME280;58990;46.284;13.126;2022-09-27T03:37:03;97729.44;;;11.91;96.83
41531;BME280;58990;46.284;13.126;2022-09-27T03:39:28;97726.59;;;11.92;96.81
41531;BME280;58990;46.284;13.126;2022-09-27T03:41:54;97719.38;;;11.88;97.00
41531;BME280;58990;46.284;13.126;2022-09-27T03:44:19;97720.53;;;11.92;96.48
41531;BME280;58990;46.284;13.126;2022-09-27T03:46:45;97711.84;;;11.91;96.43
41531;BME280;58990;46.284;13.126;2022-09-27T03:49:10;97714.22;;;11.93;96.39
41531;BME280;58990;46.284;13.126;2022-09-27T03:51:35;97707.25;;;11.87;97.18
41531;BME280;58990;46.284;13.126;2022-09-27T03:54:01;97716.28;;;11.91;96.77
41531;BME280;58990;46.284;13.126;2022-09-27T03:56:27;97715.72;;;11.89;96.45
41531;BME280;58990;46.284;13.126;2022-09-27T03:58:53;97707.94;;;11.94;96.48
41531;BME280;58990;46.284;13.126;2022-09-27T04:01:18;97711.97;;;11.97;95.68
41531;BME280;58990;46.284;13.126;2022-09-27T04:03:46;97724.91;;;11.98;95.52
41531;BME280;58990;46.284;13.126;2022-09-27T04:06:12;97729.22;;;11.92;96.34
41531;BME280;58990;46.284;13.126;2022-09-27T04:08:38;97735.94;;;11.88;96.27
41531;BME280;58990;46.284;13.126;2022-09-27T04:11:03;97731.94;;;11.86;96.47
41531;BME280;58990;46.284;13.126;2022-09-27T04:13:29;97736.19;;;11.87;96.56
41531;BME280;58990;46.284;13.126;2022-09-27T04:15:54;97742.00;;;11.89;96.30
41531;BME280;58990;46.284;13.126;2022-09-27T04:18:20;97733.56;;;11.87;95.99
41531;BME280;58990;46.284;13.126;2022-09-27T04:20:45;97724.66;;;11.88;95.66
41531;BME280;58990;46.284;13.126;2022-09-27T04:23:11;97727.19;;;11.94;95.64
41531;BME280;58990;46.284;13.126;2022-09-27T04:25:36;97733.09;;;11.90;95.89
41531;BME280;58990;46.284;13.126;2022-09-27T04:28:04;97739.72;;;11.92;95.58
41531;BME280;58990;46.284;13.126;2022-09-27T04:30:30;97729.44;;;11.91;95.22
41531;BME280;58990;46.284;13.126;2022-09-27T04:32:56;97739.38;;;11.89;95.29
41531;BME280;58990;46.284;13.126;2022-09-27T04:35:21;97734.69;;;11.91;95.58
41531;BME280;58990;46.284;13.126;2022-09-27T04:38:06;97740.50;;;11.93;95.80
41531;BME280;58990;46.284;13.126;2022-09-27T04:40:35;97742.13;;;11.94;95.22
41531;BME280;58990;46.284;13.126;2022-09-27T04:43:01;97736.25;;;11.99;95.77
41531;BME280;58990;46.284;13.126;2022-09-27T04:45:27;97736.34;;;12.04;96.00
41531;BME280;58990;46.284;13.126;2022-09-27T04:47:52;97733.59;;;11.99;96.00
41531;BME280;58990;46.284;13.126;2022-09-27T04:50:20;97734.03;;;11.95;96.58
41531;BME280;58990;46.284;13.126;2022-09-27T04:52:50;97729.44;;;11.91;96.92
41531;BME280;58990;46.284;13.126;2022-09-27T04:55:16;97729.84;;;11.94;97.04
41531;BME280;58990;46.284;13.126;2022-09-27T04:57:42;97723.66;;;12.01;96.18
41531;BME280;58990;46.284;13.126;2022-09-27T05:00:08;97723.31;;;11.97;95.99
41531;BME280;58990;46.284;13.126;2022-09-27T05:02:33;97718.06;;;11.97;96.45
41531;BME280;58990;46.284;13.126;2022-09-27T05:04:59;97723.81;;;11.87;97.42
41531;BME280;58990;46.284;13.126;2022-09-27T05:07:26;97725.44;;;11.88;96.92
41531;BME280;58990;46.284;13.126;2022-09-27T05:09:51;97731.06;;;11.92;96.90
41531;BME280;58990;46.284;13.126;2022-09-27T05:12:17;97727.03;;;11.89;96.43
41531;BME280;58990;46.284;13.126;2022-09-27T05:14:43;97731.84;;;11.92;96.40
41531;BME280;58990;46.284;13.126;2022-09-27T05:17:08;97726.50;;;11.99;95.57
41531;BME280;58990;46.284;13.126;2022-09-27T05:19:34;97725.94;;;11.97;95.26
41531;BME280;58990;46.284;13.126;2022-09-27T05:21:59;97712.81;;;11.97;95.10
41531;BME280;58990;46.284;13.126;2022-09-27T05:24:25;97713.59;;;11.98;94.93
41531;BME280;58990;46.284;13.126;2022-09-27T05:26:52;97714.38;;;11.98;95.25
41531;BME280;58990;46.284;13.126;2022-09-27T05:29:18;97710.72;;;11.99;95.82
41531;BME280;58990;46.284;13.126;2022-09-27T05:31:43;97710.72;;;11.99;95.25
41531;BME280;58990;46.284;13.126;2022-09-27T05:34:09;97707.09;;;12.00;95.00
41531;BME280;58990;46.284;13.126;2022-09-27T05:36:35;97711.88;;;12.03;95.15
41531;BME280;58990;46.284;13.126;2022-09-27T05:39:01;97702.63;;;12.01;94.99
41531;BME280;58990;46.284;13.126;2022-09-27T05:41:27;97701.34;;;12.03;94.35
41531;BME280;58990;46.284;13.126;2022-09-27T05:43:52;97694.50;;;12.02;93.98
41531;BME280;58990;46.284;13.126;2022-09-27T05:46:17;97702.38;;;12.02;93.97
41531;BME280;58990;46.284;13.126;2022-09-27T05:48:43;97708.78;;;12.06;94.05
41531;BME280;58990;46.284;13.126;2022-09-27T05:51:08;97704.56;;;12.05;93.25
41531;BME280;58990;46.284;13.126;2022-09-27T05:53:35;97703.09;;;12.09;92.71
41531;BME280;58990;46.284;13.126;2022-09-27T05:56:02;97691.53;;;12.10;91.58
41531;BME280;58990;46.284;13.126;2022-09-27T05:58:28;97699.28;;;12.17;92.34
41531;BME280;58990;46.284;13.126;2022-09-27T06:00:55;97705.25;;;12.13;92.43
41531;BME280;58990;46.284;13.126;2022-09-27T06:03:20;97693.38;;;12.10;93.04
41531;BME280;58990;46.284;13.126;2022-09-27T06:05:45;97700.66;;;12.20;91.45
41531;BME280;58990;46.284;13.126;2022-09-27T06:08:12;97700.22;;;12.23;91.97
41531;BME280;58990;46.284;13.126;2022-09-27T06:10:39;97692.09;;;12.24;91.30
41531;BME280;58990;46.284;13.126;2022-09-27T06:13:14;97702.88;;;12.23;92.19
41531;BME280;58990;46.284;13.126;2022-09-27T06:15:42;97700.34;;;12.16;93.05
41531;BME280;58990;46.284;13.126;2022-09-27T06:18:13;97695.41;;;12.20;92.82
41531;BME280;58990;46.284;13.126;2022-09-27T06:20:40;97696.91;;;12.16;92.64
41531;BME280;58990;46.284;13.126;2022-09-27T06:23:10;97702.28;;;12.21;92.29
41531;BME280;58990;46.284;13.126;2022-09-27T06:25:36;97695.75;;;12.23;92.31
41531;BME280;58990;46.284;13.126;2022-09-27T06:28:02;97699.66;;;12.33;90.76
41531;BME280;58990;46.284;13.126;2022-09-27T06:30:28;97706.41;;;12.40;91.50
41531;BME280;58990;46.284;13.126;2022-09-27T06:32:56;97701.13;;;12.40;92.50
41531;BME280;58990;46.284;13.126;2022-09-27T06:35:26;97706.41;;;12.28;94.16
41531;BME280;58990;46.284;13.126;2022-09-27T06:37:52;97702.50;;;12.31;93.44
41531;BME280;58990;46.284;13.126;2022-09-27T06:40:18;97700.44;;;12.33;93.23
41531;BME280;58990;46.284;13.126;2022-09-27T06:42:44;97695.75;;;12.35;93.37
41531;BME280;58990;46.284;13.126;2022-09-27T06:45:10;97694.75;;;12.36;92.71
41531;BME280;58990;46.284;13.126;2022-09-27T06:47:36;97700.31;;;12.40;92.66
41531;BME280;58990;46.284;13.126;2022-09-27T06:50:03;97705.69;;;12.45;92.94
41531;BME280;58990;46.284;13.126;2022-09-27T06:52:30;97703.31;;;12.43;93.68
41531;BME280;58990;46.284;13.126;2022-09-27T06:54:56;97694.28;;;12.39;92.68
41531;BME280;58990;46.284;13.126;2022-09-27T06:57:21;97692.44;;;12.40;92.51
41531;BME280;58990;46.284;13.126;2022-09-27T07:00:09;97687.97;;;12.40;93.69
41531;BME280;58990;46.284;13.126;2022-09-27T07:02:55;97685.34;;;12.40;92.03
41531;BME280;58990;46.284;13.126;2022-09-27T07:05:28;97695.16;;;12.45;91.54
41531;BME280;58990;46.284;13.126;2022-09-27T07:07:57;97698.16;;;12.49;91.88
41531;BME280;58990;46.284;13.126;2022-09-27T07:10:24;97700.31;;;12.52;91.53
41531;BME280;58990;46.284;13.126;2022-09-27T07:12:50;97697.22;;;12.55;91.81
41531;BME280;58990;46.284;13.126;2022-09-27T07:15:16;97710.59;;;12.53;91.85
41531;BME280;58990;46.284;13.126;2022-09-27T07:17:42;97709.56;;;12.66;91.67
41531;BME280;58990;46.284;13.126;2022-09-27T07:20:07;97704.63;;;12.70;92.02
41531;BME280;58990;46.284;13.126;2022-09-27T07:22:38;97709.56;;;12.66;92.06
41531;BME280;58990;46.284;13.126;2022-09-27T07:25:04;97709.09;;;12.69;91.45
41531;BME280;58990;46.284;13.126;2022-09-27T07:27:30;97708.19;;;12.75;92.26
41531;BME280;58990;46.284;13.126;2022-09-27T07:29:57;97707.13;;;12.76;92.38
41531;BME280;58990;46.284;13.126;2022-09-27T07:32:22;97718.34;;;12.72;92.22
41531;BME280;58990;46.284;13.126;2022-09-27T07:34:48;97709.56;;;12.66;93.01
41531;BME280;58990;46.284;13.126;2022-09-27T07:37:13;97708.50;;;12.67;93.19
41531;BME280;58990;46.284;13.126;2022-09-27T07:39:38;97709.63;;;12.71;93.42
41531;BME280;58990;46.284;13.126;2022-09-27T07:42:04;97712.97;;;12.78;92.96
41531;BME280;58990;46.284;13.126;2022-09-27T07:44:30;97713.84;;;12.96;91.23
41531;BME280;58990;46.284;13.126;2022-09-27T07:46:55;97710.03;;;13.04;91.06
41531;BME280;58990;46.284;13.126;2022-09-27T07:49:21;97715.72;;;13.12;91.83
41531;BME280;58990;46.284;13.126;2022-09-27T07:51:46;97711.19;;;13.25;92.43
41531;BME280;58990;46.284;13.126;2022-09-27T07:54:11;97705.00;;;13.31;92.17
41531;BME280;58990;46.284;13.126;2022-09-27T07:56:37;97701.78;;;13.41;91.52
41531;BME280;58990;46.284;13.126;2022-09-27T07:59:02;97696.94;;;13.50;90.40
41531;BME280;58990;46.284;13.126;2022-09-27T08:01:28;97693.41;;;13.61;89.23
41531;BME280;58990;46.284;13.126;2022-09-27T08:03:53;97690.38;;;13.69;88.10
41531;BME280;58990;46.284;13.126;2022-09-27T08:06:19;97685.56;;;13.83;87.42
41531;BME280;58990;46.284;13.126;2022-09-27T08:08:44;97688.94;;;13.95;85.24
41531;BME280;58990;46.284;13.126;2022-09-27T08:11:13;97689.16;;;14.11;82.98
41531;BME280;58990;46.284;13.126;2022-09-27T08:13:43;97682.03;;;14.11;80.53
41531;BME280;58990;46.284;13.126;2022-09-27T08:16:09;97682.03;;;14.11;80.02
41531;BME280;58990;46.284;13.126;2022-09-27T08:18:38;97694.03;;;14.02;78.30
41531;BME280;58990;46.284;13.126;2022-09-27T08:21:04;97697.72;;;14.01;80.00
41531;BME280;58990;46.284;13.126;2022-09-27T08:23:29;97697.06;;;13.94;80.21
41531;BME280;58990;46.284;13.126;2022-09-27T08:25:55;97702.44;;;13.99;80.73
41531;BME280;58990;46.284;13.126;2022-09-27T08:28:25;97705.41;;;13.86;81.88
41531;BME280;58990;46.284;13.126;2022-09-27T08:30:51;97705.25;;;13.75;82.91
41531;BME280;58990;46.284;13.126;2022-09-27T08:33:17;97709.06;;;13.68;82.35
41531;BME280;58990;46.284;13.126;2022-09-27T08:35:42;97702.53;;;13.70;82.73
41531;BME280;58990;46.284;13.126;2022-09-27T08:38:08;97703.66;;;13.74;82.85
41531;BME280;58990;46.284;13.126;2022-09-27T08:48:34;97710.84;;;13.62;84.18
41531;BME280;58990;46.284;13.126;2022-09-27T08:51:01;97703.00;;;13.67;83.76
41531;BME280;58990;46.284;13.126;2022-09-27T08:56:15;97707.63;;;13.60;85.66
41531;BME280;58990;46.284;13.126;2022-09-27T08:59:19;97704.44;;;13.58;84.53
41531;BME280;58990;46.284;13.126;2022-09-27T09:01:50;97704.59;;;13.68;84.00
41531;BME280;58990;46.284;13.126;2022-09-27T09:04:23;97701.31;;;13.95;81.78
41531;BME280;58990;46.284;13.126;2022-09-27T09:09:54;97694.44;;;14.50;80.18
41531;BME280;58990;46.284;13.126;2022-09-27T09:20:57;97698.59;;;14.63;78.98
41531;BME280;58990;46.284;13.126;2022-09-27T09:24:00;97707.84;;;14.66;78.07
41531;BME280;58990;46.284;13.126;2022-09-27T09:35:29;97707.31;;;14.86;78.07
41531;BME280;58990;46.284;13.126;2022-09-27T09:38:00;97700.47;;;14.90;77.63
41531;BME280;58990;46.284;13.126;2022-09-27T09:40:35;97704.22;;;14.94;77.08
41531;BME280;58990;46.284;13.126;2022-09-27T09:43:16;97701.50;;;14.84;76.36
41531;BME280;58990;46.284;13.126;2022-09-27T09:45:49;97708.22;;;14.96;76.81
41531;BME280;58990;46.284;13.126;2022-09-27T09:51:32;97696.09;;;15.50;73.43
41531;BME280;58990;46.284;13.126;2022-09-27T09:59:51;97686.31;;;16.74;69.70
41531;BME280;58990;46.284;13.126;2022-09-27T10:02:33;97675.03;;;17.04;68.58
41531;BME280;58990;46.284;13.126;2022-09-27T10:05:01;97675.03;;;16.94;67.41
41531;BME280;58990;46.284;13.126;2022-09-27T10:07:27;97678.13;;;16.75;68.31
41531;BME280;58990;46.284;13.126;2022-09-27T10:09:56;97677.56;;;16.73;67.33
41531;BME280;58990;46.284;13.126;2022-09-27T10:12:24;97675.28;;;16.34;69.86
41531;BME280;58990;46.284;13.126;2022-09-27T10:14:51;97676.50;;;16.16;70.60
41531;BME280;58990;46.284;13.126;2022-09-27T10:17:22;97685.22;;;16.11;71.26
41531;BME280;58990;46.284;13.126;2022-09-27T10:19:49;97676.22;;;16.12;70.83
41531;BME280;58990;46.284;13.126;2022-09-27T10:22:35;97675.16;;;16.13;70.40
41531;BME280;58990;46.284;13.126;2022-09-27T10:25:05;97684.81;;;16.35;70.67
41531;BME280;58990;46.284;13.126;2022-09-27T10:27:39;97693.31;;;16.42;69.16
41531;BME280;58990;46.284;13.126;2022-09-27T10:30:20;97694.66;;;16.45;69.27
41531;BME280;58990;46.284;13.126;2022-09-27T10:32:51;97690.94;;;16.41;69.02
41531;BME280;58990;46.284;13.126;2022-09-27T10:40:54;97689.25;;;16.72;67.25
41531;BME280;58990;46.284;13.126;2022-09-27T10:46:30;97700.81;;;16.56;67.42
41531;BME280;58990;46.284;13.126;2022-09-27T10:49:18;97700.31;;;16.59;67.92
41531;BME280;58990;46.284;13.126;2022-09-27T10:51:48;97699.28;;;16.70;66.92
41531;BME280;58990;46.284;13.126;2022-09-27T10:54:20;97701.41;;;16.73;67.51
41531;BME280;58990;46.284;13.126;2022-09-27T10:56:54;97697.81;;;16.95;66.92
41531;BME280;58990;46.284;13.126;2022-09-27T10:59:21;97701.56;;;17.09;66.23
41531;BME280;58990;46.284;13.126;2022-09-27T11:01:48;97703.19;;;17.15;63.94
41531;BME280;58990;46.284;13.126;2022-09-27T11:04:22;97703.72;;;17.23;64.10
41531;BME280;58990;46.284;13.126;2022-09-27T11:06:48;97701.13;;;17.59;63.13
41531;BME280;58990;46.284;13.126;2022-09-27T11:09:23;97702.97;;;17.69;62.23
41531;BME280;58990;46.284;13.126;2022-09-27T11:12:04;97703.00;;;17.74;62.75
41531;BME280;58990;46.284;13.126;2022-09-27T11:14:30;97693.16;;;18.05;61.34
41531;BME280;58990;46.284;13.126;2022-09-27T11:17:18;97688.28;;;18.48;61.62
41531;BME280;58990;46.284;13.126;2022-09-27T11:25:19;97687.09;;;18.86;57.95
41531;BME280;58990;46.284;13.126;2022-09-27T11:30:50;97694.09;;;19.26;56.00
41531;BME280;58990;46.284;13.126;2022-09-27T11:50:42;97693.59;;;19.59;57.15
41531;BME280;58990;46.284;13.126;2022-09-27T12:09:39;97697.06;;;15.71;59.85
41531;BME280;58990;46.284;13.126;2022-09-27T12:14:57;97718.81;;;14.74;62.40
41531;BME280;58990;46.284;13.126;2022-09-27T12:17:39;97728.97;;;14.66;63.05
41531;BME280;58990;46.284;13.126;2022-09-27T12:20:15;97751.56;;;14.56;63.46
41531;BME280;58990;46.284;13.126;2022-09-27T12:22:54;97756.59;;;14.41;63.33
41531;BME280;58990;46.284;13.126;2022-09-27T12:25:22;97763.75;;;14.23;62.92
41531;BME280;58990;46.284;13.126;2022-09-27T12:27:54;97749.34;;;14.31;63.46
41531;BME280;58990;46.284;13.126;2022-09-27T12:30:22;97752.06;;;14.36;64.73
41531;BME280;58990;46.284;13.126;2022-09-27T12:35:43;97757.34;;;14.36;66.88
41531;BME280;58990;46.284;13.126;2022-09-27T12:41:00;97752.84;;;14.20;66.88
41531;BME280;58990;46.284;13.126;2022-09-27T12:43:27;97760.47;;;14.16;67.65
41531;BME280;58990;46.284;13.126;2022-09-27T12:51:23;97794.41;;;13.78;68.34
41531;BME280;58990;46.284;13.126;2022-09-27T12:59:49;97819.44;;;13.35;72.26
41531;BME280;58990;46.284;13.126;2022-09-27T13:13:16;97842.88;;;12.96;77.59
41531;BME280;58990;46.284;13.126;2022-09-27T13:15:43;97841.59;;;12.87;79.09
41531;BME280;58990;46.284;13.126;2022-09-27T13:18:43;97848.72;;;12.74;78.94
41531;BME280;58990;46.284;13.126;2022-09-27T13:24:40;97808.22;;;12.75;81.21
41531;BME280;58990;46.284;13.126;2022-09-27T13:44:45;97691.63;;;14.01;72.86
41531;BME280;58990;46.284;13.126;2022-09-27T13:47:24;97684.38;;;13.74;73.69
41531;BME280;58990;46.284;13.126;2022-09-27T13:49:59;97684.06;;;13.70;73.52
41531;BME280;58990;46.284;13.126;2022-09-27T13:52:32;97699.16;;;13.75;73.13
41531;BME280;58990;46.284;13.126;2022-09-27T13:55:01;97698.91;;;13.76;73.53
41531;BME280;58990;46.284;13.126;2022-09-27T13:57:45;97712.75;;;13.67;72.66
41531;BME280;58990;46.284;13.126;2022-09-27T14:00:26;97701.00;;;13.74;74.75
41531;BME280;58990;46.284;13.126;2022-09-27T14:06:02;97699.81;;;13.82;69.34
41531;BME280;58990;46.284;13.126;2022-09-27T14:11:11;97721.13;;;13.80;67.17
41531;BME280;58990;46.284;13.126;2022-09-27T14:13:38;97732.50;;;13.81;69.22
41531;BME280;58990;46.284;13.126;2022-09-27T14:16:05;97740.66;;;13.79;67.46
41531;BME280;58990;46.284;13.126;2022-09-27T14:18:32;97743.75;;;13.93;68.06
41531;BME280;58990;46.284;13.126;2022-09-27T14:23:50;97742.66;;;14.06;65.19
41531;BME280;58990;46.284;13.126;2022-09-27T14:26:23;97745.69;;;14.15;63.53
41531;BME280;58990;46.284;13.126;2022-09-27T14:28:48;97757.50;;;14.12;64.93
41531;BME280;58990;46.284;13.126;2022-09-27T14:34:05;97772.56;;;14.12;64.87
41531;BME280;58990;46.284;13.126;2022-09-27T14:36:33;97781.66;;;14.04;64.93
41531;BME280;58990;46.284;13.126;2022-09-27T14:39:26;97784.19;;;13.99;66.62
41531;BME280;58990;46.284;13.126;2022-09-27T14:41:55;97775.09;;;14.07;66.87
41531;BME280;58990;46.284;13.126;2022-09-27T14:44:21;97778.44;;;14.02;64.91
41531;BME280;58990;46.284;13.126;2022-09-27T14:46:47;97793.47;;;14.02;64.41
41531;BME280;58990;46.284;13.126;2022-09-27T14:49:20;97800.03;;;13.99;64.49
41531;BME280;58990;46.284;13.126;2022-09-27T14:51:53;97792.25;;;13.92;65.13
41531;BME280;58990;46.284;13.126;2022-09-27T14:54:24;97792.25;;;13.92;65.72
41531;BME280;58990;46.284;13.126;2022-09-27T14:56:52;97789.31;;;13.89;65.54
41531;BME280;58990;46.284;13.126;2022-09-27T15:02:16;97784.84;;;13.89;63.59
41531;BME280;58990;46.284;13.126;2022-09-27T15:04:45;97795.44;;;13.77;63.90
41531;BME280;58990;46.284;13.126;2022-09-27T15:07:12;97785.94;;;13.76;63.68
41531;BME280;58990;46.284;13.126;2022-09-27T15:09:40;97789.63;;;13.75;63.50
41531;BME280;58990;46.284;13.126;2022-09-27T15:12:06;97791.44;;;13.75;63.80
41531;BME280;58990;46.284;13.126;2022-09-27T15:14:33;97784.00;;;13.72;64.43
41531;BME280;58990;46.284;13.126;2022-09-27T15:17:05;97792.66;;;13.67;64.08
41531;BME280;58990;46.284;13.126;2022-09-27T15:19:31;97790.56;;;13.69;62.94
41531;BME280;58990;46.284;13.126;2022-09-27T15:22:22;97796.91;;;13.56;63.61
41531;BME280;58990;46.284;13.126;2022-09-27T15:24:48;97785.09;;;13.59;63.72
41531;BME280;58990;46.284;13.126;2022-09-27T15:27:17;97789.91;;;13.62;63.39
41531;BME280;58990;46.284;13.126;2022-09-27T15:29:50;97790.84;;;13.56;64.66
41531;BME280;58990;46.284;13.126;2022-09-27T15:32:17;97795.19;;;13.62;64.71
41531;BME280;58990;46.284;13.126;2022-09-27T15:34:44;97798.19;;;13.54;64.21
41531;BME280;58990;46.284;13.126;2022-09-27T15:37:26;97807.81;;;13.48;64.11
41531;BME280;58990;46.284;13.126;2022-09-27T15:39:52;97797.06;;;13.50;63.69
41531;BME280;58990;46.284;13.126;2022-09-27T15:42:18;97806.16;;;13.42;63.77
41531;BME280;58990;46.284;13.126;2022-09-27T15:44:54;97800.16;;;13.35;64.04
41531;BME280;58990;46.284;13.126;2022-09-27T15:52:55;97813.94;;;13.37;64.11
41531;BME280;58990;46.284;13.126;2022-09-27T15:55:23;97824.69;;;13.35;64.93
41531;BME280;58990;46.284;13.126;2022-09-27T15:57:54;97826.50;;;13.35;64.71
41531;BME280;58990;46.284;13.126;2022-09-27T16:00:23;97832.59;;;13.35;64.54
41531;BME280;58990;46.284;13.126;2022-09-27T16:02:49;97839.03;;;13.39;65.02
41531;BME280;58990;46.284;13.126;2022-09-27T16:05:15;97838.34;;;13.32;66.05
41531;BME280;58990;46.284;13.126;2022-09-27T16:07:40;97840.16;;;13.32;65.09
41531;BME280;58990;46.284;13.126;2022-09-27T16:10:13;97840.41;;;13.30;65.85
41531;BME280;58990;46.284;13.126;2022-09-27T16:12:39;97836.63;;;13.26;65.36
41531;BME280;58990;46.284;13.126;2022-09-27T16:15:05;97838.78;;;13.29;65.65
41531;BME280;58990;46.284;13.126;2022-09-27T16:17:31;97840.06;;;13.26;64.67
41531;BME280;58990;46.284;13.126;2022-09-27T16:19:57;97841.31;;;13.24;65.54
41531;BME280;58990;46.284;13.126;2022-09-27T16:22:22;97847.06;;;13.21;65.69
41531;BME280;58990;46.284;13.126;2022-09-27T16:24:47;97855.53;;;13.23;65.10
41531;BME280;58990;46.284;13.126;2022-09-27T16:27:25;97852.56;;;13.19;65.12
41531;BME280;58990;46.284;13.126;2022-09-27T16:29:52;97845.44;;;13.20;64.75
41531;BME280;58990;46.284;13.126;2022-09-27T16:32:17;97841.22;;;13.19;64.92
41531;BME280;58990;46.284;13.126;2022-09-27T16:34:43;97846.94;;;13.16;64.53
41531;BME280;58990;46.284;13.126;2022-09-27T16:37:08;97851.66;;;13.13;65.38
41531;BME280;58990;46.284;13.126;2022-09-27T16:39:35;97855.19;;;13.19;64.88
41531;BME280;58990;46.284;13.126;2022-09-27T16:42:01;97857.03;;;13.19;64.63
41531;BME280;58990;46.284;13.126;2022-09-27T16:44:30;97866.88;;;13.11;65.22
41531;BME280;58990;46.284;13.126;2022-09-27T16:46:58;97866.75;;;13.06;65.67
41531;BME280;58990;46.284;13.126;2022-09-27T16:49:23;97869.97;;;13.08;64.93